Friesland, Wisconsin
Current Conditions -  °F | °C
As of 4:35 PM on Wednesday 22 Oct 2014 (Local Time) from KUNU Reporting Station
Clear Clear  
Wind Chill: 55°   Ceiling: Unl
Heat Index: 55°   Visibility: 10mi
Dew Point: 38°   Wind: 7mph
Humidity: 54%   Direction: 130°SE
Pressure: 30.27"   Gusts: NA
Location:  43.59°N, 89.07°W
Report Text: KUNU 222135Z AUTO 13006KT 10SM CLR 13/04 A3027 RMK AO2 T01280036
Loading
Personal Weather Stations






























Interactive Weather Map
Tropical Storm Tracking
New forecast layout! Learn more

10-Day Weather Forecast

Advertisements
Track Severe Weather on mobile